Terminal Aerodrome Forecast
Issued by NWS Sioux Falls, SD

Home | Current Version | Previous Version | Text Only | Print | Product List | Glossary On
Versions: 1 2 3 4 5 6 7 8 9 10 11 12 13
000
FTUS43 KFSD 100534
TAFSUX
TAF
KSUX 100534Z 1006/1106 VRB03KT P6SM -SN BKN050
     FM101200 10005KT 4SM -SN OVC030
     FM101500 11009KT 2SM -SN OVC015
     FM101600 11010KT 1SM -SN OVC015
     FM101900 13013KT 3SM -SN OVC025
     FM102100 13014KT P6SM OVC030=

USA.gov is the U.S. government's official web portal to all federal, state and local government web resources and services.